createdAt,value
2018-09-18T00:00:56.541Z,15.08
2018-09-18T00:03:25.897Z,14.70
2018-09-18T00:05:54.860Z,15.48
2018-09-18T00:08:24.270Z,16.07
2018-09-18T00:10:53.196Z,14.23
2018-09-18T00:13:22.130Z,16.25
2018-09-18T00:15:51.021Z,14.15
2018-09-18T00:18:20.535Z,16.40
2018-09-18T00:20:49.434Z,16.75
2018-09-18T00:23:18.342Z,15.45
2018-09-18T00:25:47.271Z,16.40
2018-09-18T00:28:16.816Z,16.93
2018-09-18T00:30:45.716Z,16.55
2018-09-18T00:33:14.634Z,16.12
2018-09-18T00:35:43.556Z,15.03
2018-09-18T00:38:12.491Z,17.07
2018-09-18T00:40:41.661Z,15.32
2018-09-18T00:43:11.039Z,15.85
2018-09-18T00:45:40.468Z,15.75
2018-09-18T00:48:09.525Z,19.27
2018-09-18T00:50:38.444Z,16.60
2018-09-18T00:53:07.354Z,18.23
2018-09-18T00:55:36.678Z,18.77
2018-09-18T00:58:06.554Z,16.90
2018-09-18T01:00:36.156Z,17.55
2018-09-18T01:03:05.129Z,20.77
2018-09-18T01:05:34.035Z,17.98
2018-09-18T01:08:03.574Z,17.98
2018-09-18T01:10:32.580Z,18.55
2018-09-18T01:13:01.527Z,21.10
2018-09-18T01:15:30.500Z,15.80
2018-09-18T01:17:59.462Z,18.25
2018-09-18T01:20:28.368Z,21.60
2018-09-18T01:22:57.315Z,18.07
2018-09-18T01:25:26.194Z,17.92
2018-09-18T01:27:55.086Z,19.05
2018-09-18T01:30:24.064Z,20.48
2018-09-18T01:32:52.987Z,18.52
2018-09-18T01:35:22.583Z,18.70
2018-09-18T01:37:52.090Z,18.65
2018-09-18T01:40:21.133Z,17.98
2018-09-18T01:42:50.125Z,18.92
2018-09-18T01:45:19.098Z,17.65
2018-09-18T01:47:48.008Z,18.80
2018-09-18T01:50:16.927Z,16.75
2018-09-18T01:52:45.979Z,19.80
2018-09-18T01:55:14.936Z,18.85
2018-09-18T01:57:43.940Z,17.85
2018-09-18T02:00:12.883Z,23.00
2018-09-18T02:02:41.799Z,16.37
2018-09-18T02:05:10.761Z,19.15
2018-09-18T02:07:39.678Z,17.57
2018-09-18T02:10:08.954Z,20.05
2018-09-18T02:12:37.906Z,16.62
2018-09-18T02:15:06.890Z,18.62
2018-09-18T02:17:36.297Z,17.02
2018-09-18T02:20:05.556Z,20.10
2018-09-18T02:22:34.686Z,18.50
2018-09-18T02:25:03.706Z,21.42
2018-09-18T02:27:32.956Z,21.45
2018-09-18T02:30:01.841Z,19.20
2018-09-18T02:32:30.785Z,22.30
2018-09-18T02:34:59.735Z,17.70
2018-09-18T02:37:28.613Z,18.70
2018-09-18T02:39:57.552Z,16.93
2018-09-18T02:42:26.571Z,16.23
2018-09-18T02:44:55.530Z,19.62
2018-09-18T02:47:25.064Z,20.88
2018-09-18T02:49:54.096Z,17.98
2018-09-18T02:52:23.570Z,18.27
2018-09-18T02:54:52.500Z,21.10
2018-09-18T02:57:21.436Z,19.65
2018-09-18T02:59:50.373Z,19.17
2018-09-18T03:02:19.311Z,17.20
2018-09-18T03:04:48.235Z,19.27
2018-09-18T03:07:17.648Z,17.50
2018-09-18T03:09:46.519Z,19.42
2018-09-18T03:12:15.423Z,18.50
2018-09-18T03:14:44.341Z,17.48
2018-09-18T03:17:14.398Z,18.75
2018-09-18T03:19:44.756Z,21.95
2018-09-18T03:22:13.776Z,20.68
2018-09-18T03:24:43.107Z,18.27
2018-09-18T03:27:12.084Z,18.35
2018-09-18T03:29:40.986Z,22.70
2018-09-18T03:32:09.930Z,22.27
2018-09-18T03:34:38.832Z,18.77
2018-09-18T03:37:07.719Z,21.87
2018-09-18T03:39:36.674Z,22.45
2018-09-18T03:42:05.557Z,22.10
2018-09-18T03:44:34.480Z,28.38
2018-09-18T03:47:03.861Z,29.87
2018-09-18T03:49:32.826Z,22.60
2018-09-18T03:52:02.312Z,20.88
2018-09-18T03:54:31.278Z,23.87
2018-09-18T03:57:00.192Z,23.22
2018-09-18T03:59:29.359Z,22.22
2018-09-18T04:01:58.734Z,20.90
2018-09-18T04:04:29.185Z,21.00
2018-09-18T04:06:58.079Z,21.60
2018-09-18T04:09:27.388Z,23.22
2018-09-18T04:11:56.339Z,20.00
2018-09-18T04:14:25.313Z,26.90
2018-09-18T04:16:54.219Z,25.30
2018-09-18T04:19:23.160Z,22.30
2018-09-18T04:21:52.097Z,23.25
2018-09-18T04:24:22.056Z,26.82
2018-09-18T04:26:51.165Z,28.20
2018-09-18T04:29:21.039Z,28.42
2018-09-18T04:31:49.974Z,30.62
2018-09-18T04:34:18.871Z,27.42
2018-09-18T04:36:48.383Z,26.85
2018-09-18T04:39:17.299Z,25.97
2018-09-18T04:41:46.249Z,29.77
2018-09-18T04:44:15.766Z,22.87
2018-09-18T04:46:44.674Z,30.20
2018-09-18T04:49:13.617Z,27.85
2018-09-18T04:51:42.515Z,27.32
2018-09-18T04:54:11.441Z,24.43
2018-09-18T04:56:40.610Z,22.05
2018-09-18T04:59:09.580Z,21.60
2018-09-18T05:01:38.504Z,24.02
2018-09-18T05:04:07.472Z,24.57
2018-09-18T05:06:36.360Z,26.57
2018-09-18T05:09:07.884Z,19.48
2018-09-18T05:11:37.527Z,24.82
2018-09-18T05:14:06.709Z,19.95
2018-09-18T05:16:36.172Z,21.97
2018-09-18T05:19:05.299Z,19.07
2018-09-18T05:21:34.415Z,25.90
2018-09-18T05:24:03.902Z,25.43
2018-09-18T05:26:34.562Z,20.37
2018-09-18T05:29:03.918Z,20.50
2018-09-18T05:31:33.379Z,18.67
2018-09-18T05:34:02.820Z,18.35
2018-09-18T05:36:31.754Z,15.98
2018-09-18T05:39:01.154Z,16.10
2018-09-18T05:41:30.142Z,16.27
2018-09-18T05:43:59.113Z,15.75
2018-09-18T05:46:28.079Z,12.47
2018-09-18T05:48:57.004Z,14.00
2018-09-18T05:51:26.493Z,12.90
2018-09-18T05:53:55.778Z,12.28
2018-09-18T05:56:24.701Z,13.65
2018-09-18T05:58:54.386Z,13.32
2018-09-18T06:01:23.364Z,11.90
2018-09-18T06:03:52.381Z,13.10
2018-09-18T06:06:21.359Z,12.33
2018-09-18T06:08:50.405Z,12.00
2018-09-18T06:11:19.355Z,11.28
2018-09-18T06:13:48.331Z,10.80
2018-09-18T06:16:17.403Z,11.57
2018-09-18T06:18:46.602Z,13.40
2018-09-18T06:21:15.630Z,11.63
2018-09-18T06:23:44.548Z,12.03
2018-09-18T06:26:13.999Z,9.10
2018-09-18T06:28:43.304Z,13.40
2018-09-18T06:31:12.250Z,11.15
2018-09-18T06:33:41.176Z,12.20
2018-09-18T06:36:10.195Z,12.23
2018-09-18T06:38:39.140Z,12.15
2018-09-18T06:41:08.752Z,10.85
2018-09-18T06:43:37.657Z,11.45
2018-09-18T06:46:07.106Z,10.50
2018-09-18T06:48:36.058Z,11.53
2018-09-18T06:51:05.112Z,10.20
2018-09-18T06:53:35.065Z,9.90
2018-09-18T06:56:03.976Z,10.10
2018-09-18T06:58:32.910Z,10.10
2018-09-18T07:01:02.340Z,9.07
2018-09-18T07:03:31.323Z,10.77
2018-09-18T07:06:00.312Z,9.97
2018-09-18T07:08:29.278Z,10.10
2018-09-18T07:10:58.227Z,10.00
2018-09-18T07:13:28.250Z,8.97
2018-09-18T07:15:57.187Z,9.83
2018-09-18T07:18:26.133Z,9.80
2018-09-18T07:20:55.081Z,10.93
2018-09-18T07:23:24.096Z,9.03
2018-09-18T07:25:53.035Z,11.43
2018-09-18T07:28:22.674Z,10.20
2018-09-18T07:30:51.599Z,7.40
2018-09-18T07:33:21.203Z,7.63
2018-09-18T07:35:50.767Z,7.93
2018-09-18T07:38:19.644Z,8.80
2018-09-18T07:40:48.583Z,8.53
2018-09-18T07:43:17.509Z,8.00
2018-09-18T07:45:46.480Z,8.03
2018-09-18T07:48:15.606Z,7.97
2018-09-18T07:50:44.568Z,7.13
2018-09-18T07:53:13.510Z,8.20
2018-09-18T07:55:42.573Z,7.63
2018-09-18T07:58:11.495Z,7.70
2018-09-18T08:00:40.488Z,7.60
2018-09-18T08:03:09.586Z,6.50
2018-09-18T08:05:38.545Z,8.20
2018-09-18T08:08:07.541Z,6.63
2018-09-18T08:10:36.982Z,5.93
2018-09-18T08:13:06.315Z,11.70
2018-09-18T08:15:35.386Z,6.37
2018-09-18T08:18:04.357Z,7.07
2018-09-18T08:20:33.792Z,5.63
2018-09-18T08:23:02.796Z,6.80
2018-09-18T08:25:31.871Z,6.70
2018-09-18T08:28:01.357Z,6.17
2018-09-18T08:30:30.293Z,6.47
2018-09-18T08:32:59.340Z,6.70
2018-09-18T08:35:28.299Z,10.03
2018-09-18T08:37:57.613Z,7.57
2018-09-18T08:40:26.937Z,7.13
2018-09-18T08:42:56.074Z,6.63
2018-09-18T08:45:25.120Z,6.70
2018-09-18T08:47:54.025Z,5.37
2018-09-18T08:50:23.037Z,6.70
2018-09-18T08:52:52.564Z,6.37
2018-09-18T08:55:22.181Z,6.40
2018-09-18T08:57:51.118Z,6.90
2018-09-18T09:00:20.163Z,6.97
2018-09-18T09:02:49.060Z,9.27
2018-09-18T09:05:18.080Z,7.20
2018-09-18T09:07:47.078Z,6.27
2018-09-18T09:10:16.038Z,6.40
2018-09-18T09:12:45.592Z,7.47
2018-09-18T09:15:14.601Z,6.10
2018-09-18T09:17:43.530Z,7.07
2018-09-18T09:20:12.943Z,5.93
2018-09-18T09:22:41.962Z,7.10
2018-09-18T09:25:10.873Z,6.57
2018-09-18T09:27:40.465Z,6.53
2018-09-18T09:30:09.583Z,6.50
2018-09-18T09:32:38.501Z,6.15
2018-09-18T09:35:07.466Z,7.12
2018-09-18T09:37:36.397Z,6.12
2018-09-18T09:40:06.563Z,5.85
2018-09-18T09:42:35.467Z,6.83
2018-09-18T09:45:04.477Z,6.80
2018-09-18T09:47:33.516Z,6.92
2018-09-18T09:50:02.912Z,6.37
2018-09-18T09:52:31.844Z,6.55
2018-09-18T09:55:01.258Z,6.40
2018-09-18T09:57:30.176Z,6.50
2018-09-18T09:59:59.077Z,7.00
2018-09-18T10:02:29.690Z,6.03
2018-09-18T10:04:59.541Z,7.92
2018-09-18T10:07:28.434Z,7.28
2018-09-18T10:09:57.409Z,6.33
2018-09-18T10:12:26.287Z,7.15
2018-09-18T10:14:55.902Z,7.10
2018-09-18T10:17:24.810Z,6.60
2018-09-18T10:19:53.736Z,6.80
2018-09-18T10:22:23.305Z,7.90
2018-09-18T10:24:52.245Z,6.90
2018-09-18T10:27:21.253Z,6.95
2018-09-18T10:29:50.156Z,6.60
2018-09-18T10:32:19.123Z,6.22
2018-09-18T10:34:48.037Z,6.08
2018-09-18T10:37:17.053Z,5.85
2018-09-18T10:39:45.978Z,5.85
2018-09-18T10:42:15.022Z,8.18
2018-09-18T10:44:44.063Z,6.25
2018-09-18T10:47:12.952Z,5.80
2018-09-18T10:49:41.963Z,5.97
2018-09-18T10:52:10.896Z,5.12
2018-09-18T10:54:39.836Z,5.65
2018-09-18T10:57:09.427Z,5.53
2018-09-18T10:59:38.320Z,6.72
2018-09-18T11:02:07.667Z,6.12
2018-09-18T11:04:36.556Z,6.40
2018-09-18T11:07:05.875Z,6.33
2018-09-18T11:09:34.799Z,6.30
2018-09-18T11:12:03.790Z,5.90
2018-09-18T11:14:33.298Z,5.40
2018-09-18T11:17:03.150Z,5.65
2018-09-18T11:19:32.102Z,6.03
2018-09-18T11:22:01.071Z,6.25
2018-09-18T11:24:30.056Z,6.72
2018-09-18T11:26:59.076Z,5.83
2018-09-18T11:29:28.575Z,7.53
2018-09-18T11:31:57.576Z,5.50
2018-09-18T11:34:27.077Z,7.67
2018-09-18T11:36:56.035Z,5.05
2018-09-18T11:39:25.017Z,6.47
2018-09-18T11:41:53.946Z,5.10
2018-09-18T11:44:23.965Z,5.75
2018-09-18T11:46:52.954Z,4.72
2018-09-18T11:49:22.016Z,8.48
2018-09-18T11:51:50.971Z,7.92
2018-09-18T11:54:20.093Z,5.47
2018-09-18T11:56:49.023Z,5.53
2018-09-18T11:59:18.965Z,5.90
2018-09-18T12:01:48.060Z,5.60
2018-09-18T12:04:17.184Z,5.12
2018-09-18T12:06:46.128Z,5.00
2018-09-18T12:09:15.311Z,5.78
2018-09-18T12:11:44.196Z,5.35
2018-09-18T12:14:13.701Z,4.62
2018-09-18T12:16:42.744Z,5.55
2018-09-18T12:19:12.276Z,5.17
2018-09-18T12:21:41.216Z,5.78
2018-09-18T12:24:10.262Z,4.95
2018-09-18T12:26:39.202Z,4.97
2018-09-18T12:29:08.139Z,5.60
2018-09-18T12:31:37.214Z,5.22
2018-09-18T12:34:06.197Z,5.15
2018-09-18T12:36:35.203Z,5.35
2018-09-18T12:39:06.166Z,5.50
2018-09-18T12:41:35.128Z,5.83
2018-09-18T12:44:04.123Z,5.20
2018-09-18T12:46:33.961Z,5.22
2018-09-18T12:49:03.507Z,5.40
2018-09-18T12:51:32.407Z,5.55
2018-09-18T12:54:01.411Z,5.10
2018-09-18T12:56:30.955Z,5.37
2018-09-18T12:59:00.011Z,4.70
2018-09-18T13:01:28.860Z,5.67
2018-09-18T13:03:57.815Z,6.90
2018-09-18T13:06:26.892Z,5.20
2018-09-18T13:08:56.142Z,5.00
2018-09-18T13:11:25.142Z,4.83
2018-09-18T13:13:54.718Z,5.50
2018-09-18T13:16:23.690Z,4.95
2018-09-18T13:18:52.844Z,4.47
2018-09-18T13:21:21.840Z,5.15
2018-09-18T13:23:50.756Z,4.70
2018-09-18T13:26:20.690Z,4.65
2018-09-18T13:28:49.640Z,4.45
2018-09-18T13:31:18.544Z,4.65
2018-09-18T13:33:47.530Z,4.78
2018-09-18T13:36:16.503Z,4.90
2018-09-18T13:38:45.431Z,5.72
2018-09-18T13:41:14.832Z,5.17
2018-09-18T13:43:43.827Z,5.75
2018-09-18T13:46:12.837Z,5.83
2018-09-18T13:48:41.748Z,4.75
2018-09-18T13:51:10.669Z,5.12
2018-09-18T13:53:39.674Z,5.58
2018-09-18T13:56:08.682Z,5.80
2018-09-18T13:58:37.657Z,5.45
2018-09-18T14:01:06.701Z,5.55
2018-09-18T14:03:35.624Z,5.60
2018-09-18T14:06:04.600Z,4.65
2018-09-18T14:08:33.560Z,5.15
2018-09-18T14:11:02.958Z,4.75
2018-09-18T14:13:31.960Z,5.55
2018-09-18T14:16:00.873Z,4.70
2018-09-18T14:18:44.279Z,5.28
2018-09-18T14:21:13.230Z,8.63
2018-09-18T14:23:42.164Z,4.80
2018-09-18T14:26:11.455Z,4.90
2018-09-18T14:28:41.516Z,5.00
2018-09-18T14:31:10.464Z,7.67
2018-09-18T14:33:39.430Z,4.37
2018-09-18T14:36:09.036Z,5.22
2018-09-18T14:38:38.082Z,4.03
2018-09-18T14:41:07.067Z,5.40
2018-09-18T14:43:35.988Z,4.90
2018-09-18T14:46:05.552Z,4.92
2018-09-18T14:48:34.513Z,5.05
2018-09-18T14:51:03.447Z,6.10
2018-09-18T14:53:32.706Z,5.22
2018-09-18T14:56:02.731Z,5.55
2018-09-18T14:58:31.676Z,5.87
2018-09-18T15:01:00.860Z,5.53
2018-09-18T15:03:30.324Z,7.35
2018-09-18T15:05:59.271Z,5.72
2018-09-18T15:08:28.216Z,4.92
2018-09-18T15:10:57.154Z,5.10
2018-09-18T15:13:26.101Z,4.95
2018-09-18T15:15:55.030Z,6.60
2018-09-18T15:18:23.982Z,6.65
2018-09-18T15:20:52.909Z,6.20
2018-09-18T15:23:22.356Z,5.67
2018-09-18T15:25:51.268Z,5.30
2018-09-18T15:28:20.255Z,6.15
2018-09-18T15:30:49.201Z,5.47
2018-09-18T15:33:18.083Z,5.03
2018-09-18T15:35:47.068Z,5.33
2018-09-18T15:38:16.239Z,4.90
2018-09-18T15:40:46.255Z,6.78
2018-09-18T15:43:16.143Z,4.65
2018-09-18T15:45:45.151Z,5.60
2018-09-18T15:48:14.850Z,5.03
2018-09-18T15:50:43.808Z,4.78
2018-09-18T15:53:12.758Z,5.12
2018-09-18T15:55:41.895Z,7.17
2018-09-18T15:58:10.964Z,4.65
2018-09-18T16:00:39.866Z,5.37
2018-09-18T16:03:08.811Z,6.70
2018-09-18T16:05:37.822Z,5.67
2018-09-18T16:08:06.797Z,5.00
2018-09-18T16:10:35.706Z,5.28
2018-09-18T16:13:04.666Z,5.15
2018-09-18T16:18:02.966Z,7.25
2018-09-18T16:20:31.905Z,4.83
2018-09-18T16:23:01.121Z,4.83
2018-09-18T16:25:30.105Z,5.08
2018-09-18T16:27:59.022Z,3.95
2018-09-18T16:30:27.980Z,6.42
2018-09-18T16:32:56.976Z,4.37
2018-09-18T16:35:25.916Z,5.35
2018-09-18T16:37:54.849Z,5.25
2018-09-18T16:40:23.949Z,5.40
2018-09-18T16:42:53.460Z,5.30
2018-09-18T16:45:23.004Z,5.40
2018-09-18T16:47:51.915Z,4.70
2018-09-18T16:50:20.941Z,5.67
2018-09-18T16:52:49.897Z,4.97
2018-09-18T16:55:18.839Z,4.97
2018-09-18T16:57:47.730Z,5.72
2018-09-18T17:00:17.183Z,5.47
2018-09-18T17:02:46.127Z,5.03
2018-09-18T17:05:15.062Z,6.15
2018-09-18T17:07:44.012Z,5.70
2018-09-18T17:10:13.477Z,5.05
2018-09-18T17:12:42.998Z,10.18
2018-09-18T17:15:11.964Z,4.97
2018-09-18T17:17:41.471Z,6.37
2018-09-18T17:20:10.401Z,5.30
2018-09-18T17:22:39.416Z,5.53
2018-09-18T17:25:08.385Z,6.58
2018-09-18T17:27:38.224Z,5.12
2018-09-18T17:30:07.561Z,5.80
2018-09-18T17:32:36.475Z,4.75
2018-09-18T17:35:06.217Z,5.87
2018-09-18T17:37:35.384Z,4.47
2018-09-18T17:40:04.523Z,5.20
2018-09-18T17:42:33.491Z,4.62
2018-09-18T17:45:02.512Z,5.50
2018-09-18T17:47:34.838Z,5.15
2018-09-18T17:50:03.909Z,6.50
2018-09-18T17:52:32.842Z,5.85
2018-09-18T17:55:01.989Z,4.55
2018-09-18T17:57:31.224Z,4.72
2018-09-18T18:00:00.136Z,5.05
2018-09-18T18:02:29.161Z,5.87
2018-09-18T18:04:58.063Z,5.50
2018-09-18T18:07:27.254Z,6.22
2018-09-18T18:09:56.199Z,4.97
2018-09-18T18:12:25.168Z,5.78
2018-09-18T18:14:54.109Z,4.90
2018-09-18T18:17:23.353Z,5.08
2018-09-18T18:19:52.265Z,7.67
2018-09-18T18:22:21.799Z,9.15
2018-09-18T18:24:51.160Z,5.60
2018-09-18T18:27:20.087Z,4.72
2018-09-18T18:29:49.041Z,5.00
2018-09-18T18:32:18.208Z,5.42
2018-09-18T18:34:47.143Z,4.97
2018-09-18T18:37:16.088Z,5.40
2018-09-18T18:39:45.052Z,5.22
2018-09-18T18:42:13.962Z,5.10
2018-09-18T18:44:43.444Z,5.47
2018-09-18T18:47:12.388Z,5.12
2018-09-18T18:52:17.768Z,6.75
2018-09-18T18:54:47.254Z,5.10
2018-09-18T18:57:16.176Z,5.20
2018-09-18T18:59:45.107Z,6.33
2018-09-18T19:02:14.078Z,4.78
2018-09-18T19:04:43.525Z,5.78
2018-09-18T19:07:12.626Z,5.10
2018-09-18T19:09:41.545Z,4.10
2018-09-18T19:12:10.534Z,4.37
2018-09-18T19:14:39.468Z,7.20
2018-09-18T19:17:08.845Z,5.20
2018-09-18T19:19:37.743Z,5.20
2018-09-18T19:22:06.975Z,5.10
2018-09-18T19:24:37.599Z,4.33
2018-09-18T19:27:06.895Z,6.17
2018-09-18T19:29:35.799Z,7.28
2018-09-18T19:32:04.769Z,4.60
2018-09-18T19:34:34.219Z,5.40
2018-09-18T19:37:03.246Z,6.05
2018-09-18T19:39:32.139Z,4.92
2018-09-18T19:42:01.114Z,6.12
2018-09-18T19:44:30.612Z,5.37
2018-09-18T19:46:59.655Z,4.80
2018-09-18T19:49:28.645Z,4.40
2018-09-18T19:51:58.236Z,4.50
2018-09-18T19:54:27.167Z,4.85
2018-09-18T19:56:56.080Z,4.85
2018-09-18T19:59:25.144Z,6.37
2018-09-18T20:01:55.248Z,5.00
2018-09-18T20:04:24.257Z,7.22
2018-09-18T20:06:53.210Z,5.70
2018-09-18T20:09:22.249Z,5.67
2018-09-18T20:11:51.114Z,4.95
2018-09-18T20:14:20.029Z,5.35
2018-09-18T20:16:49.003Z,6.00
2018-09-18T20:19:18.929Z,4.95
2018-09-18T20:21:48.113Z,5.30
2018-09-18T20:24:17.033Z,6.40
2018-09-18T20:26:45.984Z,6.53
2018-09-18T20:29:14.908Z,7.45
2018-09-18T20:31:43.967Z,10.23
2018-09-18T20:34:14.767Z,5.22
2018-09-18T20:36:44.374Z,6.17
2018-09-18T20:39:13.363Z,6.67
2018-09-18T20:41:42.484Z,4.42
2018-09-18T20:44:11.355Z,5.08
2018-09-18T20:46:41.606Z,7.10
2018-09-18T20:49:12.968Z,6.65
2018-09-18T20:51:43.344Z,6.90
2018-09-18T20:54:14.073Z,4.75
2018-09-18T20:56:44.909Z,9.75
2018-09-18T20:59:14.004Z,5.75
2018-09-18T21:01:43.212Z,5.85
2018-09-18T21:04:12.315Z,4.87
2018-09-18T21:06:41.430Z,6.55
2018-09-18T21:09:11.203Z,5.10
2018-09-18T21:11:41.450Z,4.90
2018-09-18T21:14:10.907Z,4.45
2018-09-18T21:16:40.367Z,7.47
2018-09-18T21:19:09.820Z,5.35
2018-09-18T21:21:39.886Z,5.47
2018-09-18T21:24:08.811Z,6.97
2018-09-18T21:26:38.178Z,6.85
2018-09-18T21:29:07.612Z,5.80
2018-09-18T21:31:37.244Z,4.45
2018-09-18T21:34:06.178Z,6.92
2018-09-18T21:36:35.986Z,5.95
2018-09-18T21:39:08.703Z,5.00
2018-09-18T21:41:38.664Z,5.53
2018-09-18T21:44:08.329Z,10.98
2018-09-18T21:46:38.446Z,5.03
2018-09-18T21:49:07.820Z,5.03
2018-09-18T21:51:37.346Z,4.55
2018-09-18T21:54:07.051Z,5.40
2018-09-18T21:56:36.350Z,4.75
2018-09-18T21:59:05.474Z,5.33
2018-09-18T22:01:34.379Z,5.75
2018-09-18T22:04:03.800Z,5.83
2018-09-18T22:06:32.829Z,6.03
2018-09-18T22:09:01.913Z,5.10
2018-09-18T22:11:30.810Z,4.87
2018-09-18T22:14:00.143Z,5.58
2018-09-18T22:16:29.980Z,3.85
2018-09-18T22:18:59.302Z,4.33
2018-09-18T22:21:28.184Z,5.28
2018-09-18T22:23:57.667Z,4.90
2018-09-18T22:26:26.578Z,5.30
2018-09-18T22:28:55.431Z,5.35
2018-09-18T22:31:24.323Z,4.62
2018-09-18T22:33:53.190Z,6.67
2018-09-18T22:36:22.270Z,4.10
2018-09-18T22:38:51.437Z,5.90
2018-09-18T22:41:20.355Z,5.55
2018-09-18T22:43:49.249Z,4.85
2018-09-18T22:46:18.418Z,5.53
2018-09-18T22:48:47.306Z,6.45
2018-09-18T22:51:16.269Z,4.45
2018-09-18T22:53:45.157Z,4.75
2018-09-18T22:56:14.053Z,3.72
2018-09-18T22:58:43.473Z,6.72
2018-09-18T23:01:12.363Z,5.35
2018-09-18T23:03:41.392Z,5.97
2018-09-18T23:06:10.345Z,4.72
2018-09-18T23:08:39.391Z,4.78
2018-09-18T23:11:08.384Z,4.55
2018-09-18T23:13:37.313Z,5.28
2018-09-18T23:16:06.322Z,4.65
2018-09-18T23:18:35.301Z,5.12
2018-09-18T23:21:04.283Z,7.45
2018-09-18T23:23:33.212Z,4.97
2018-09-18T23:26:02.622Z,3.62
2018-09-18T23:28:31.602Z,6.15
2018-09-18T23:31:00.499Z,6.33
2018-09-18T23:33:29.422Z,4.15
2018-09-18T23:35:58.327Z,4.58
2018-09-18T23:38:27.846Z,5.50
2018-09-18T23:40:56.756Z,4.92
2018-09-18T23:43:25.637Z,4.75
2018-09-18T23:45:54.871Z,4.25
2018-09-18T23:48:23.842Z,6.10
2018-09-18T23:50:52.780Z,4.08
2018-09-18T23:53:22.583Z,6.78
2018-09-18T23:55:52.105Z,5.08
2018-09-18T23:58:21.143Z,4.25
